Time;durP1;ratioP1;P1;durP2;ratioP2;P2;SDS_P1;SDS_P2;PMS_P1;PMS_P2;Temp;Humidity;BMP_temperature;BMP_pressure;BME280_temperature;BME280_humidity;BME280_pressure;Samples;Min_cycle;Max_cycle;Signal;HPM_P1;HPM_P2
2021/03/09 00:01:58;;;;;;;;;;;29.10;83.80;;;;;;5064920;28;19943;-49
2021/03/09 00:04:24;;;;;;;;;;;29.10;83.30;;;;;;5064166;28;19976;-49
2021/03/09 00:06:51;;;;;;;;;;;29.10;83.00;;;;;;5064431;28;20027;-51
2021/03/09 00:09:17;;;;;;;;;;;29.10;83.00;;;;;;5064007;28;19905;-50
2021/03/09 00:11:43;;;;;;;;;;;29.10;83.00;;;;;;5064510;28;19905;-47
2021/03/09 00:14:09;;;;;;;;;;;29.10;83.00;;;;;;5064205;28;19912;-49
2021/03/09 00:16:35;;;;;;;;;;;29.10;82.30;;;;;;5062984;28;19962;-52
2021/03/09 00:19:02;;;;;;;;;;;29.10;82.20;;;;;;5064231;28;19975;-45
2021/03/09 00:21:28;;;;;;;;;;;29.10;82.10;;;;;;5064297;28;20086;-41
2021/03/09 00:23:54;;;;;;;;;;;29.10;81.80;;;;;;5064459;28;19905;-47
2021/03/09 00:26:21;;;;;;;;;;;29.10;81.70;;;;;;5064314;28;19905;-53
2021/03/09 00:28:47;;;;;;;;;;;29.10;81.70;;;;;;5063110;28;19904;-51
2021/03/09 00:31:13;;;;;;;;;;;29.10;81.70;;;;;;5064227;28;19946;-48
2021/03/09 00:33:40;;;;;;;;;;;29.10;81.60;;;;;;5063843;28;19917;-51
2021/03/09 00:36:06;;;;;;;;;;;29.00;81.50;;;;;;5063893;28;19911;-48
2021/03/09 00:38:32;;;;;;;;;;;29.00;81.60;;;;;;5063845;28;19912;-46
2021/03/09 00:40:58;;;;;;;;;;;29.00;81.50;;;;;;5063945;28;19904;-50
2021/03/09 00:43:25;;;;;;;;;;;29.00;81.60;;;;;;5063550;28;20231;-52
2021/03/09 00:45:51;;;;;;;;;;;29.00;81.50;;;;;;5062425;28;19909;-44
2021/03/09 00:48:17;;;;;;;;;;;29.00;81.60;;;;;;5063862;28;19905;-47
2021/03/09 00:50:43;;;;;;;;;;;29.00;81.70;;;;;;5063429;28;19900;-41
2021/03/09 00:53:09;;;;;;;;;;;29.00;81.90;;;;;;5063419;28;19912;-46
2021/03/09 00:55:35;;;;;;;;;;;29.00;81.80;;;;;;5063771;28;19927;-49
2021/03/09 00:58:01;;;;;;;;;;;28.90;81.60;;;;;;5063916;28;19943;-49
2021/03/09 01:00:29;;;;;;;;;;;28.90;81.70;;;;;;5064099;28;20185;-51
2021/03/09 01:02:55;;;;;;;;;;;28.90;81.50;;;;;;5064201;28;19905;-50
2021/03/09 01:05:21;;;;;;;;;;;28.90;81.40;;;;;;5063408;28;19932;-54
2021/03/09 01:07:48;;;;;;;;;;;28.90;81.40;;;;;;5063674;28;19972;-47
2021/03/09 01:10:14;;;;;;;;;;;28.80;81.20;;;;;;5063623;28;20194;-51
2021/03/09 01:12:40;;;;;;;;;;;28.80;81.00;;;;;;5064025;28;19915;-47
2021/03/09 01:15:07;;;;;;;;;;;28.80;81.10;;;;;;5063520;28;19908;-50
2021/03/09 01:17:33;;;;;;;;;;;28.80;81.10;;;;;;5064068;28;19975;-44
2021/03/09 01:20:00;;;;;;;;;;;28.70;80.90;;;;;;5063440;28;19905;-52
2021/03/09 01:22:26;;;;;;;;;;;28.80;81.10;;;;;;5063884;28;19905;-49
2021/03/09 01:24:52;;;;;;;;;;;28.80;80.90;;;;;;5063525;28;19905;-44
2021/03/09 01:27:19;;;;;;;;;;;28.70;80.60;;;;;;5063816;28;19905;-43
2021/03/09 01:29:45;;;;;;;;;;;28.70;80.80;;;;;;5063400;28;19911;-55
2021/03/09 01:32:11;;;;;;;;;;;28.70;80.80;;;;;;5063670;28;20016;-52
2021/03/09 01:34:37;;;;;;;;;;;28.70;81.40;;;;;;5063571;28;19947;-46
2021/03/09 01:37:04;;;;;;;;;;;28.60;80.90;;;;;;5063400;28;19908;-47
2021/03/09 01:39:30;;;;;;;;;;;28.60;81.00;;;;;;5064673;28;19916;-51
2021/03/09 01:41:56;;;;;;;;;;;28.60;81.00;;;;;;5067133;28;19904;-49
2021/03/09 01:44:23;;;;;;;;;;;28.60;80.90;;;;;;5066748;28;19905;-55
2021/03/09 01:46:50;;;;;;;;;;;28.60;80.90;;;;;;5066779;28;19904;-51
2021/03/09 01:49:17;;;;;;;;;;;28.60;80.90;;;;;;5066659;28;20179;-45
2021/03/09 01:51:43;;;;;;;;;;;28.50;80.50;;;;;;5066689;28;20205;-49
2021/03/09 01:54:12;;;;;;;;;;;28.50;80.30;;;;;;5066489;28;19949;-49
2021/03/09 01:56:39;;;;;;;;;;;28.50;80.40;;;;;;5066845;28;19909;-50
2021/03/09 01:59:06;;;;;;;;;;;28.40;80.40;;;;;;5066366;28;19968;-47
2021/03/09 02:01:33;;;;;;;;;;;28.40;80.20;;;;;;5065825;28;19951;-49
2021/03/09 02:03:59;;;;;;;;;;;28.40;80.20;;;;;;5066305;28;19900;-47
2021/03/09 02:06:25;;;;;;;;;;;28.40;80.20;;;;;;5066550;28;19909;-50
2021/03/09 02:08:52;;;;;;;;;;;28.30;79.90;;;;;;5066414;28;19901;-49
2021/03/09 02:11:38;;;;;;;;;;;28.30;80.10;;;;;;5066430;28;20200;-52
2021/03/09 02:14:12;;;;;;;;;;;28.30;80.20;;;;;;5066112;28;19979;-44
2021/03/09 02:16:59;;;;;;;;;;;28.30;80.00;;;;;;5066712;28;19909;-50
2021/03/09 02:19:26;;;;;;;;;;;28.30;80.10;;;;;;5066431;28;19935;-46
2021/03/09 02:22:03;;;;;;;;;;;28.20;80.00;;;;;;5066543;28;19913;-48
2021/03/09 02:24:47;;;;;;;;;;;28.20;79.90;;;;;;5066332;28;19912;-50
2021/03/09 02:27:13;;;;;;;;;;;28.20;79.80;;;;;;5066692;28;19908;-51
2021/03/09 02:29:40;;;;;;;;;;;28.20;79.20;;;;;;5066280;28;19942;-40
2021/03/09 02:32:27;;;;;;;;;;;28.20;79.10;;;;;;5066298;28;19912;-45
2021/03/09 02:34:55;;;;;;;;;;;28.20;79.00;;;;;;5065980;28;19908;-51
2021/03/09 02:37:23;;;;;;;;;;;28.20;79.00;;;;;;5066235;28;19908;-45
2021/03/09 02:39:49;;;;;;;;;;;28.10;78.50;;;;;;5065812;28;19900;-40
2021/03/09 02:42:22;;;;;;;;;;;28.10;78.20;;;;;;5066324;28;20185;-45
2021/03/09 02:44:50;;;;;;;;;;;28.10;77.90;;;;;;5065771;28;19909;-41
2021/03/09 02:47:17;;;;;;;;;;;28.10;77.70;;;;;;5066147;28;19909;-49
2021/03/09 02:49:46;;;;;;;;;;;28.10;77.10;;;;;;5064340;28;19942;-48
2021/03/09 02:52:19;;;;;;;;;;;28.10;76.60;;;;;;5063434;28;19982;-47
2021/03/09 02:54:47;;;;;;;;;;;28.10;76.30;;;;;;5065470;28;19907;-40
2021/03/09 02:57:14;;;;;;;;;;;28.10;75.80;;;;;;5065659;28;19954;-41
2021/03/09 02:59:42;;;;;;;;;;;28.10;75.60;;;;;;5065445;28;19901;-47
2021/03/09 03:02:09;;;;;;;;;;;28.10;75.20;;;;;;5065695;28;19968;-46
2021/03/09 03:04:35;;;;;;;;;;;28.10;75.20;;;;;;5065213;28;19943;-47
2021/03/09 03:07:02;;;;;;;;;;;28.10;74.80;;;;;;5065727;28;19911;-52
2021/03/09 03:09:28;;;;;;;;;;;28.10;74.80;;;;;;5065123;28;19920;-51
2021/03/09 03:11:55;;;;;;;;;;;28.10;74.90;;;;;;5065402;28;19909;-49
2021/03/09 03:14:23;;;;;;;;;;;28.10;74.70;;;;;;5065100;28;19944;-44
2021/03/09 03:16:50;;;;;;;;;;;28.10;75.00;;;;;;5065355;28;19911;-41
2021/03/09 03:19:17;;;;;;;;;;;28.10;75.40;;;;;;5064986;28;19936;-52
2021/03/09 03:21:44;;;;;;;;;;;28.00;74.00;;;;;;5065286;28;19905;-46
2021/03/09 03:24:10;;;;;;;;;;;28.00;74.10;;;;;;5064902;28;20268;-45
2021/03/09 03:26:40;;;;;;;;;;;28.00;73.80;;;;;;5063798;28;19912;-42
2021/03/09 03:29:08;;;;;;;;;;;28.00;73.90;;;;;;5065135;28;19909;-48
2021/03/09 03:31:34;;;;;;;;;;;28.00;73.60;;;;;;5064906;28;19908;-44
2021/03/09 03:34:01;;;;;;;;;;;28.00;73.70;;;;;;5064756;28;19909;-54
2021/03/09 03:36:27;;;;;;;;;;;27.90;73.50;;;;;;5065055;28;19905;-50
2021/03/09 03:38:55;;;;;;;;;;;27.90;73.10;;;;;;5064647;28;19912;-49
2021/03/09 03:41:21;;;;;;;;;;;27.90;73.20;;;;;;5064917;28;19968;-48
2021/03/09 03:43:47;;;;;;;;;;;27.90;73.50;;;;;;5063876;28;19905;-44
2021/03/09 03:46:14;;;;;;;;;;;27.90;74.20;;;;;;5064941;28;19904;-44
2021/03/09 03:48:41;;;;;;;;;;;27.80;74.30;;;;;;5064706;28;20082;-48
2021/03/09 03:51:08;;;;;;;;;;;27.80;74.70;;;;;;5064883;28;20228;-43
2021/03/09 03:53:53;;;;;;;;;;;27.80;75.20;;;;;;5064680;28;20153;-50
2021/03/09 03:56:38;;;;;;;;;;;27.80;74.50;;;;;;5064621;28;20124;-45
2021/03/09 03:59:15;;;;;;;;;;;27.80;74.70;;;;;;5064502;28;20003;-51
2021/03/09 04:01:41;;;;;;;;;;;27.80;74.50;;;;;;5064837;28;19913;-42
2021/03/09 04:04:13;;;;;;;;;;;27.80;74.30;;;;;;5063537;28;19939;-49
2021/03/09 04:06:43;;;;;;;;;;;27.80;74.00;;;;;;5064708;28;19916;-58
2021/03/09 04:09:11;;;;;;;;;;;27.80;73.20;;;;;;5064379;28;19900;-50
2021/03/09 04:11:38;;;;;;;;;;;27.80;72.40;;;;;;5064542;28;19909;-44
2021/03/09 04:14:04;;;;;;;;;;;27.80;72.10;;;;;;5064318;28;19901;-49
2021/03/09 04:16:31;;;;;;;;;;;27.80;71.60;;;;;;5064513;28;19912;-50
2021/03/09 04:19:00;;;;;;;;;;;27.80;70.70;;;;;;5064588;28;20097;-51
2021/03/09 04:21:26;;;;;;;;;;;27.70;70.40;;;;;;5064384;28;19936;-44
2021/03/09 04:23:53;;;;;;;;;;;27.70;70.70;;;;;;5064445;28;19901;-50
2021/03/09 04:26:21;;;;;;;;;;;27.80;69.60;;;;;;5064455;28;19909;-48
2021/03/09 04:28:48;;;;;;;;;;;27.80;68.70;;;;;;5064125;28;19901;-46
2021/03/09 04:31:15;;;;;;;;;;;27.80;68.40;;;;;;5064506;28;19908;-48
2021/03/09 04:33:41;;;;;;;;;;;27.80;69.20;;;;;;5064127;28;19905;-45
2021/03/09 04:36:08;;;;;;;;;;;27.80;68.20;;;;;;5064279;28;19912;-42
2021/03/09 04:38:35;;;;;;;;;;;27.80;68.40;;;;;;5064399;28;19971;-47
2021/03/09 04:41:01;;;;;;;;;;;27.70;68.70;;;;;;5064432;28;19980;-46
2021/03/09 04:43:28;;;;;;;;;;;27.80;68.70;;;;;;5064402;28;19900;-46
2021/03/09 04:45:57;;;;;;;;;;;27.70;69.10;;;;;;5064711;28;19963;-47
2021/03/09 04:48:24;;;;;;;;;;;27.70;69.80;;;;;;5064235;28;20246;-47
2021/03/09 04:50:51;;;;;;;;;;;27.70;69.90;;;;;;5063882;28;19901;-46
2021/03/09 04:53:18;;;;;;;;;;;27.60;70.70;;;;;;5064065;28;19948;-46
2021/03/09 04:55:44;;;;;;;;;;;27.60;70.00;;;;;;5064445;28;19901;-43
2021/03/09 04:58:11;;;;;;;;;;;27.60;71.30;;;;;;5064121;28;19901;-49
2021/03/09 05:00:37;;;;;;;;;;;27.50;71.10;;;;;;5064246;28;19901;-52
2021/03/09 05:03:03;;;;;;;;;;;27.50;71.70;;;;;;5063850;28;19908;-48
2021/03/09 05:05:29;;;;;;;;;;;27.50;71.30;;;;;;5063875;28;19924;-47
2021/03/09 05:07:55;;;;;;;;;;;27.50;71.00;;;;;;5064420;28;19970;-49
2021/03/09 05:10:21;;;;;;;;;;;27.40;71.90;;;;;;5063889;28;19907;-46
2021/03/09 05:12:49;;;;;;;;;;;27.40;72.10;;;;;;5064356;28;19951;-48
2021/03/09 05:15:15;;;;;;;;;;;27.40;70.90;;;;;;5066924;28;20131;-42
2021/03/09 05:17:41;;;;;;;;;;;27.40;71.90;;;;;;5068240;28;19951;-44
2021/03/09 05:20:09;;;;;;;;;;;27.40;71.60;;;;;;5067840;28;19904;-49
2021/03/09 05:22:36;;;;;;;;;;;27.40;72.10;;;;;;5067988;28;20228;-46
2021/03/09 05:25:03;;;;;;;;;;;27.30;72.10;;;;;;5068108;28;19901;-47
2021/03/09 05:27:29;;;;;;;;;;;27.30;72.20;;;;;;5068079;28;20193;-52
2021/03/09 05:29:55;;;;;;;;;;;27.30;72.40;;;;;;5067554;28;20129;-42
2021/03/09 05:32:21;;;;;;;;;;;27.20;72.70;;;;;;5067718;28;19988;-48
2021/03/09 05:34:48;;;;;;;;;;;27.20;73.60;;;;;;5067517;28;19907;-49
2021/03/09 05:37:14;;;;;;;;;;;27.20;73.70;;;;;;5066696;28;19943;-43
2021/03/09 05:39:40;;;;;;;;;;;27.20;74.10;;;;;;5067459;28;19924;-42
2021/03/09 05:42:07;;;;;;;;;;;27.20;73.60;;;;;;5067701;28;19957;-49
2021/03/09 05:44:34;;;;;;;;;;;27.20;73.30;;;;;;5067050;28;19908;-51
2021/03/09 05:47:03;;;;;;;;;;;27.20;73.40;;;;;;5067373;28;19931;-44
2021/03/09 05:49:30;;;;;;;;;;;27.20;74.20;;;;;;5067438;28;19975;-46
2021/03/09 05:51:56;;;;;;;;;;;27.20;73.50;;;;;;5066965;28;19916;-50
2021/03/09 05:54:23;;;;;;;;;;;27.10;72.90;;;;;;5066967;28;20078;-47
2021/03/09 05:56:49;;;;;;;;;;;27.10;73.60;;;;;;5067168;28;19916;-49
2021/03/09 05:59:16;;;;;;;;;;;27.20;73.20;;;;;;5066898;28;19924;-48
2021/03/09 06:01:42;;;;;;;;;;;27.20;72.70;;;;;;5067056;28;19958;-45
2021/03/09 06:04:08;;;;;;;;;;;27.10;72.70;;;;;;5066865;28;19908;-45
2021/03/09 06:06:35;;;;;;;;;;;27.10;73.10;;;;;;5066879;28;19916;-50
2021/03/09 06:09:01;;;;;;;;;;;27.20;73.10;;;;;;5066855;28;19934;-49
2021/03/09 06:11:27;;;;;;;;;;;27.10;73.40;;;;;;5067088;28;19905;-53
2021/03/09 06:13:56;;;;;;;;;;;27.10;72.90;;;;;;5066345;28;20136;-55
2021/03/09 06:16:23;;;;;;;;;;;27.10;73.30;;;;;;5066778;28;20177;-55
2021/03/09 06:18:52;;;;;;;;;;;27.10;73.30;;;;;;5066696;28;19909;-47
2021/03/09 06:21:19;;;;;;;;;;;27.10;72.90;;;;;;5067013;28;20085;-50
2021/03/09 06:23:45;;;;;;;;;;;27.10;72.90;;;;;;5067157;28;20065;-48
2021/03/09 06:26:31;;;;;;;;;;;27.20;72.50;;;;;;5065596;28;19951;-46
2021/03/09 06:29:23;;;;;;;;;;;27.20;72.00;;;;;;5062900;28;19911;-47
2021/03/09 06:31:50;;;;;;;;;;;27.20;72.00;;;;;;5065335;28;19905;-51
2021/03/09 06:34:28;;;;;;;;;;;27.20;72.20;;;;;;5066506;28;19912;-49
2021/03/09 06:37:04;;;;;;;;;;;27.20;72.10;;;;;;5066618;28;19909;-49
2021/03/09 06:39:45;;;;;;;;;;;27.10;72.10;;;;;;5066037;28;20148;-46
2021/03/09 06:42:12;;;;;;;;;;;27.10;72.20;;;;;;5066680;28;19947;-51
2021/03/09 06:44:38;;;;;;;;;;;27.10;71.90;;;;;;5065902;28;19951;-47
2021/03/09 06:47:05;;;;;;;;;;;27.10;71.30;;;;;;5066423;28;19912;-45
2021/03/09 06:49:31;;;;;;;;;;;27.10;71.70;;;;;;5066046;28;19983;-45
2021/03/09 06:52:13;;;;;;;;;;;27.10;72.00;;;;;;5065816;28;19917;-48
2021/03/09 06:54:43;;;;;;;;;;;27.00;72.10;;;;;;5066408;28;20049;-47
2021/03/09 06:57:10;;;;;;;;;;;27.00;71.30;;;;;;5066062;28;19915;-45
2021/03/09 06:59:37;;;;;;;;;;;27.00;71.90;;;;;;5066182;28;19901;-42
2021/03/09 07:02:12;;;;;;;;;;;26.90;71.20;;;;;;5066194;28;19931;-47
2021/03/09 07:04:42;;;;;;;;;;;26.90;71.10;;;;;;5065710;28;19975;-42
2021/03/09 07:07:09;;;;;;;;;;;26.90;70.90;;;;;;5066443;28;19909;-45
2021/03/09 07:09:36;;;;;;;;;;;26.90;70.90;;;;;;5066006;28;19907;-48
2021/03/09 07:12:03;;;;;;;;;;;26.90;70.70;;;;;;5065725;28;19920;-43
2021/03/09 07:14:30;;;;;;;;;;;26.90;70.30;;;;;;5065689;28;19900;-47
2021/03/09 07:16:59;;;;;;;;;;;26.90;70.20;;;;;;5065605;28;19909;-49
2021/03/09 07:19:26;;;;;;;;;;;26.90;70.10;;;;;;5064546;28;19909;-43
2021/03/09 07:21:53;;;;;;;;;;;26.80;69.80;;;;;;5065991;28;19912;-43
2021/03/09 07:24:21;;;;;;;;;;;26.80;70.30;;;;;;5065880;28;19916;-50
2021/03/09 07:26:48;;;;;;;;;;;26.80;70.50;;;;;;5065221;28;20201;-47
2021/03/09 07:29:16;;;;;;;;;;;26.70;70.90;;;;;;5065419;28;19928;-42
2021/03/09 07:31:44;;;;;;;;;;;26.70;71.00;;;;;;5065527;28;20185;-43
2021/03/09 07:34:11;;;;;;;;;;;26.70;70.90;;;;;;5064850;28;19901;-43
2021/03/09 07:36:38;;;;;;;;;;;26.70;71.10;;;;;;5065240;28;20049;-47
2021/03/09 07:39:04;;;;;;;;;;;26.60;71.30;;;;;;5065287;28;19908;-42
2021/03/09 07:41:30;;;;;;;;;;;26.50;72.60;;;;;;5065068;28;19916;-42
2021/03/09 07:43:58;;;;;;;;;;;26.50;72.60;;;;;;5065158;28;19904;-43
2021/03/09 07:46:24;;;;;;;;;;;26.50;71.30;;;;;;5065427;28;19908;-43
2021/03/09 07:48:54;;;;;;;2.95;1.30;;;26.60;70.70;;;;;;5064456;28;20071;-43
2021/03/09 07:51:21;;;;;;;;;;;26.60;69.90;;;;;;5064824;28;20033;-42
2021/03/09 07:54:06;;;;;;;;;;;26.60;69.70;;;;;;5065027;28;19905;-50
2021/03/09 07:56:32;;;;;;;;;;;26.60;69.60;;;;;;5065082;28;19936;-47
2021/03/09 07:59:06;;;;;;;;;;;26.70;69.30;;;;;;5065049;28;20242;-46
2021/03/09 08:01:46;;;;;;;;;;;26.70;68.90;;;;;;5065130;28;19904;-45
2021/03/09 08:04:12;;;;;;;;;;;26.60;68.50;;;;;;5064917;28;19962;-43
2021/03/09 08:06:45;;;;;;;;;;;26.60;68.20;;;;;;5064606;28;19904;-45
2021/03/09 08:09:29;;;;;;;;;;;26.60;67.80;;;;;;5065054;28;20211;-45
2021/03/09 08:11:55;;;;;;;;;;;26.60;68.00;;;;;;5064615;28;20093;-46
2021/03/09 08:14:22;;;;;;;;;;;26.60;67.90;;;;;;5064657;28;19904;-46
2021/03/09 08:16:50;;;;;;;;;;;26.60;67.90;;;;;;5065201;28;19911;-43
2021/03/09 08:19:22;;;;;;;;;;;26.60;67.70;;;;;;5064129;28;19911;-44
2021/03/09 08:21:50;;;;;;;;;;;26.50;67.30;;;;;;5065107;28;19904;-50
2021/03/09 08:24:17;;;;;;;;;;;26.60;67.50;;;;;;5064631;28;19904;-46
2021/03/09 08:26:44;;;;;;;;;;;26.50;66.90;;;;;;5064778;28;19912;-47
2021/03/09 08:29:29;;;;;;;;;;;26.50;67.40;;;;;;5064359;28;19912;-48
2021/03/09 08:32:14;;;;;;;;;;;26.40;67.40;;;;;;5064494;28;19978;-44
2021/03/09 08:34:40;;;;;;;;;;;26.50;66.50;;;;;;5064414;28;19905;-47
2021/03/09 08:37:26;;;;;;;;;;;26.40;67.70;;;;;;5064470;28;19951;-45
2021/03/09 08:40:05;;;;;;;;;;;26.30;68.10;;;;;;5064469;28;19940;-44
2021/03/09 08:42:50;;;;;;;;;;;26.30;67.20;;;;;;5064818;28;20204;-44
2021/03/09 08:45:46;;;;;;;;;;;26.20;67.70;;;;;;5063971;28;19972;-43
2021/03/09 08:48:12;;;;;;;;;;;26.20;66.70;;;;;;5059537;28;19908;-43
2021/03/09 08:50:39;;;;;;;;;;;26.20;66.70;;;;;;5067595;28;19963;-50
2021/03/09 08:53:05;;;;;;;;;;;26.20;66.00;;;;;;5068083;28;19912;-55
2021/03/09 08:55:32;;;;;;;;;;;26.20;66.60;;;;;;5068916;28;19970;-44
2021/03/09 08:58:05;;;;;;;;;;;26.10;66.20;;;;;;5068281;28;19908;-46
2021/03/09 09:00:31;;;;;;;;;;;26.00;66.50;;;;;;5068400;28;19975;-50
2021/03/09 09:02:57;;;;;;;;;;;26.00;66.80;;;;;;5068602;28;19909;-43
2021/03/09 09:05:28;;;;;;;;;;;25.90;66.70;;;;;;5068808;28;19901;-43
2021/03/09 09:07:55;;;;;;;;;;;25.90;66.90;;;;;;5069226;28;19989;-46
2021/03/09 09:10:22;;;;;;;;;;;26.00;66.40;;;;;;5068481;28;20188;-46
2021/03/09 09:12:52;;;;;;;;;;;25.90;66.00;;;;;;5068781;28;19913;-48
2021/03/09 09:15:36;;;;;;;;;;;25.80;66.50;;;;;;5068362;28;19915;-46
2021/03/09 09:18:04;;;;;;;;;;;25.80;66.70;;;;;;5068246;28;19947;-47
2021/03/09 09:20:34;;;;;;;;;;;25.70;66.80;;;;;;5068140;28;19908;-47
2021/03/09 09:23:20;;;;;;;;;;;25.70;67.10;;;;;;5068182;28;19909;-48
2021/03/09 09:25:47;;;;;;;;;;;25.70;67.90;;;;;;5068057;28;19900;-46
2021/03/09 09:28:27;;;;;;;;;;;25.60;67.70;;;;;;5068239;28;20035;-45
2021/03/09 09:30:57;;;;;;;;;;;25.60;68.50;;;;;;5067842;28;19920;-47
2021/03/09 09:33:24;;;;;;;;;;;25.60;68.40;;;;;;5067985;28;20097;-44
2021/03/09 09:35:50;;;;;;;;;;;25.60;67.60;;;;;;5067878;28;19905;-42
2021/03/09 09:38:18;;;;;;;;;;;25.60;68.20;;;;;;5067220;28;19943;-45
2021/03/09 09:40:46;;;;;;;;;;;25.60;68.20;;;;;;5067343;28;20074;-49
2021/03/09 09:43:19;;;;;;;;;;;25.60;67.90;;;;;;5067226;28;19934;-45
2021/03/09 09:45:49;;;;;;;;;;;25.60;66.80;;;;;;5067451;28;20085;-44
2021/03/09 09:48:17;;;;;;;;;;;25.60;67.10;;;;;;5067301;28;19900;-45
2021/03/09 09:50:44;;;;;;;;;;;25.60;68.00;;;;;;5067093;28;20295;-42
2021/03/09 09:53:11;;;;;;;;;;;25.50;67.80;;;;;;5066837;28;19943;-46
2021/03/09 09:55:37;;;;;;;;;;;25.50;67.60;;;;;;5067012;28;19943;-45
2021/03/09 09:58:04;;;;;;;;;;;25.50;68.50;;;;;;5067201;28;19908;-50
2021/03/09 10:00:31;;;;;;;;;;;25.50;68.40;;;;;;5067133;28;20285;-43
2021/03/09 10:03:14;;;;;;;;;;;25.50;68.20;;;;;;5066913;28;19971;-47
2021/03/09 10:05:42;;;;;;;;;;;25.50;67.70;;;;;;5067144;28;19900;-50
2021/03/09 10:08:08;;;;;;;;;;;25.50;68.70;;;;;;5067013;28;20142;-41
2021/03/09 10:10:35;;;;;;;;;;;25.50;67.50;;;;;;5066738;28;20057;-50
2021/03/09 10:13:17;;;;;;;;;;;25.50;66.70;;;;;;5066562;28;19905;-43
2021/03/09 10:15:45;;;;;;;;;;;25.50;65.80;;;;;;5066883;28;20174;-43
2021/03/09 10:18:15;;;;;;;;;;;25.50;67.60;;;;;;5066594;28;19908;-46
2021/03/09 10:20:41;;;;;;;;;;;25.60;67.30;;;;;;5066770;28;19950;-46
2021/03/09 10:23:08;;;;;;;;;;;25.60;68.20;;;;;;5066706;28;19901;-51
2021/03/09 10:25:38;;;;;;;;;;;25.60;67.20;;;;;;5066327;28;19900;-49
2021/03/09 10:28:04;;;;;;;;;;;25.70;67.40;;;;;;5066591;28;20280;-54
2021/03/09 10:30:36;;;;;;;;;;;25.70;67.60;;;;;;5066440;28;19900;-52
2021/03/09 10:33:07;;;;;;;;;;;25.70;67.50;;;;;;5066288;28;20201;-46
2021/03/09 10:35:33;;;;;;;;;;;25.70;68.30;;;;;;5066339;28;20193;-47
2021/03/09 10:37:59;;;;;;;;;;;25.70;68.80;;;;;;5066223;28;19901;-44
2021/03/09 10:40:32;;;;;;;;;;;25.60;67.50;;;;;;5066247;28;19939;-43
2021/03/09 10:42:58;;;;;;;;;;;25.60;65.30;;;;;;5066402;28;19913;-52
2021/03/09 10:45:24;;;;;;;;;;;25.60;65.20;;;;;;5066482;28;19900;-44
2021/03/09 10:47:54;;;;;;;;;;;25.50;66.00;;;;;;5066531;28;20080;-43
2021/03/09 10:50:24;;;;;;;;;;;25.40;65.70;;;;;;5066284;28;20193;-50
2021/03/09 10:52:51;;;;;;;;;;;25.40;67.00;;;;;;5065893;28;19948;-43
2021/03/09 10:55:17;;;;;;;;;;;25.30;68.30;;;;;;5066361;28;19911;-43
2021/03/09 10:57:44;;;;;;;;;;;25.30;69.10;;;;;;5066619;28;19911;-49
2021/03/09 11:00:14;;;;;;;;;;;25.30;69.10;;;;;;5066008;28;19972;-48
2021/03/09 11:02:41;;;;;;;;;;;25.30;68.90;;;;;;5066519;28;20015;-40
2021/03/09 11:05:07;;;;;;;;;;;25.30;70.40;;;;;;5066098;28;19975;-54
2021/03/09 11:07:34;;;;;;;;;;;25.40;69.60;;;;;;5066104;28;20215;-45
2021/03/09 11:10:00;;;;;;;;;;;25.40;70.00;;;;;;5065703;28;19953;-46
2021/03/09 11:12:26;;;;;;;;;;;25.50;70.90;;;;;;5065395;28;20066;-53
2021/03/09 11:14:53;;;;;;;;;;;25.40;71.20;;;;;;5065853;28;19911;-47
2021/03/09 11:17:19;;;;;;;;;;;25.40;70.50;;;;;;5066060;28;19955;-49
2021/03/09 11:19:45;;;;;;;;;;;25.40;71.90;;;;;;5065966;28;19979;-43
2021/03/09 11:22:11;;;;;;;;;;;25.50;72.20;;;;;;5066114;28;19905;-56
2021/03/09 11:24:37;;;;;;;;;;;25.50;71.10;;;;;;5065669;28;19976;-47
2021/03/09 11:27:04;;;;;;;;;;;25.40;70.00;;;;;;5065687;28;19905;-43
2021/03/09 11:29:31;;;;;;;;;;;25.50;69.30;;;;;;5065734;28;20043;-44
2021/03/09 11:31:58;;;;;;;;;;;25.60;69.80;;;;;;5065311;28;19905;-50
2021/03/09 11:34:24;;;;;;;;;;;25.80;68.40;;;;;;5065200;28;20181;-42
2021/03/09 11:36:51;;;;;;;;;;;25.80;67.60;;;;;;5065409;28;20199;-51
2021/03/09 11:39:17;;;;;;;;;;;26.00;67.00;;;;;;5065070;28;19932;-47
2021/03/09 11:41:44;;;;;;;;;;;26.00;66.80;;;;;;5065385;28;19905;-44
2021/03/09 11:44:10;;;;;;;;;;;26.20;66.80;;;;;;5064974;28;19912;-42
2021/03/09 11:46:36;;;;;;;;;;;26.20;66.30;;;;;;5065253;28;20120;-46
2021/03/09 11:49:03;;;;;;;;;;;26.30;66.10;;;;;;5064909;28;19911;-46
2021/03/09 11:51:29;;;;;;;;;;;26.40;65.50;;;;;;5064971;28;19992;-45
2021/03/09 11:53:58;;;;;;;;;;;26.50;65.40;;;;;;5064710;28;19916;-51
2021/03/09 11:56:24;;;;;;;;;;;26.70;65.20;;;;;;5064917;28;19904;-47
2021/03/09 11:58:50;;;;;;;;;;;26.80;64.40;;;;;;5064722;28;19905;-43
2021/03/09 12:01:18;;;;;;;;;;;26.90;64.10;;;;;;5064694;28;19940;-46
2021/03/09 12:03:44;;;;;;;;;;;27.00;63.50;;;;;;5064650;28;19928;-41
2021/03/09 12:06:10;;;;;;;;;;;27.10;63.70;;;;;;5064795;28;19909;-42
2021/03/09 12:08:37;;;;;;;;;;;27.20;63.80;;;;;;5064782;28;19911;-43
2021/03/09 12:11:03;;;;;;;;;;;27.30;63.00;;;;;;5063221;28;20148;-50
2021/03/09 12:13:29;;;;;;;;;;;27.40;63.00;;;;;;5064459;28;19912;-50
2021/03/09 12:15:55;;;;;;;;;;;27.50;62.90;;;;;;5064778;28;20333;-42
2021/03/09 12:18:21;;;;;;;;;;;27.60;62.90;;;;;;5064432;28;19962;-43
2021/03/09 12:20:48;;;;;;;;;;;27.60;62.60;;;;;;5064720;28;19900;-41
2021/03/09 12:23:14;;;;;;;;;;;27.60;63.40;;;;;;5063916;28;19983;-55
2021/03/09 12:25:40;;;;;;;;;;;27.60;62.10;;;;;;5063926;28;19900;-47
2021/03/09 12:28:07;;;;;;;;;;;27.50;64.00;;;;;;5064431;28;19916;-43
2021/03/09 12:30:33;;;;;;;;;;;27.50;63.20;;;;;;5064298;28;19923;-43
2021/03/09 12:32:59;;;;;;;;;;;27.40;63.30;;;;;;5064414;28;19913;-42
2021/03/09 12:35:26;;;;;;;;;;;27.40;63.50;;;;;;5064407;28;19962;-52
2021/03/09 12:37:52;;;;;;;;;;;27.40;63.70;;;;;;5065084;28;19905;-43
2021/03/09 12:40:18;;;;;;;;;;;27.30;64.90;;;;;;5064304;28;19908;-47
2021/03/09 12:42:45;;;;;;;;;;;27.30;65.10;;;;;;5064619;28;19928;-46
2021/03/09 12:45:11;;;;;;;;;;;27.30;65.30;;;;;;5064563;28;19942;-41
2021/03/09 12:47:38;;;;;;;;;;;27.20;65.30;;;;;;5064911;28;19901;-44
2021/03/09 12:50:05;;;;;;;;;;;27.20;65.90;;;;;;5064419;28;19915;-48
2021/03/09 12:52:31;;;;;;;;;;;27.20;66.40;;;;;;5064123;28;20252;-49
2021/03/09 12:54:57;;;;;;;;;;;27.10;66.60;;;;;;5063974;28;19904;-42
2021/03/09 12:57:23;;;;;;;;;;;27.10;67.20;;;;;;5064490;28;19980;-41
2021/03/09 12:59:50;;;;;;;;;;;27.10;67.40;;;;;;5064093;28;19900;-42
2021/03/09 13:02:16;;;;;;;;;;;27.10;68.00;;;;;;5064396;28;19909;-44
2021/03/09 13:04:42;;;;;;;;;;;27.10;68.10;;;;;;5063972;28;19982;-51
2021/03/09 13:07:08;;;;;;;;;;;27.00;68.40;;;;;;5064818;28;19908;-43
2021/03/09 13:09:35;;;;;;;;;;;27.00;68.30;;;;;;5063779;28;19901;-50
2021/03/09 13:12:01;;;;;;;;;;;27.10;68.80;;;;;;5063760;28;20101;-54
2021/03/09 13:14:27;;;;;;;;;;;27.10;68.90;;;;;;5063804;28;19905;-48
2021/03/09 13:16:53;;;;;;;;;;;27.10;69.20;;;;;;5064090;28;19909;-49
2021/03/09 13:19:21;;;;;;;;;;;27.10;68.90;;;;;;5063622;28;20098;-52
2021/03/09 13:21:47;;;;;;;;;;;27.20;69.10;;;;;;5064044;28;20117;-52
2021/03/09 13:24:13;;;;;;;;;;;27.30;68.90;;;;;;5063722;28;19928;-54
2021/03/09 13:26:39;;;;;;;;;;;27.40;68.90;;;;;;5063989;28;19943;-58
2021/03/09 13:29:06;;;;;;;;;;;27.50;68.60;;;;;;5063440;28;19907;-52
2021/03/09 13:31:32;;;;;;;;;;;27.50;68.20;;;;;;5063970;28;19976;-53
2021/03/09 13:33:58;;;;;;;;;;;27.50;68.00;;;;;;5063481;28;19904;-56
2021/03/09 13:36:24;;;;;;;;;;;27.60;68.30;;;;;;5066576;28;19909;-54
2021/03/09 13:38:50;;;;;;;;;;;27.60;68.40;;;;;;5067412;28;19900;-55
2021/03/09 13:41:17;;;;;;;;;;;27.60;68.90;;;;;;5067253;28;19915;-52
2021/03/09 13:43:45;;;;;;;;;;;27.70;69.00;;;;;;5067032;28;19904;-56
2021/03/09 13:46:11;;;;;;;;;;;27.80;68.80;;;;;;5067265;28;19967;-54
2021/03/09 13:48:40;;;;;;;;;;;27.80;68.70;;;;;;5067040;28;20151;-47
2021/03/09 13:51:06;;;;;;;;;;;27.90;68.90;;;;;;5067133;28;19947;-46
2021/03/09 13:53:32;;;;;;;;;;;28.00;68.80;;;;;;5066725;28;19913;-46
2021/03/09 13:55:59;;;;;;;;;;;28.10;68.50;;;;;;5066767;28;19912;-50
2021/03/09 13:58:25;;;;;;;;;;;28.20;68.70;;;;;;5066961;28;19951;-52
2021/03/09 14:00:51;;;;;;;;;;;28.20;68.80;;;;;;5066817;28;19943;-49
2021/03/09 14:03:17;;;;;;;;;;;28.20;68.60;;;;;;5066674;28;19901;-46
2021/03/09 14:05:43;;;;;;;;;;;28.20;68.80;;;;;;5066655;28;19901;-49
2021/03/09 14:08:10;;;;;;;;;;;28.20;69.10;;;;;;5066712;28;19908;-46
2021/03/09 14:10:36;;;;;;;;;;;28.20;69.20;;;;;;5066526;28;20071;-45
2021/03/09 14:13:02;;;;;;;;;;;28.20;69.40;;;;;;5066727;28;20139;-54
2021/03/09 14:15:28;;;;;;;;;;;28.20;69.60;;;;;;5065462;28;19912;-45
2021/03/09 14:17:55;;;;;;;;;;;28.20;69.90;;;;;;5066996;28;19909;-52
2021/03/09 14:20:21;;;;;;;;;;;28.20;70.10;;;;;;5066437;28;20156;-47
2021/03/09 14:22:47;;;;;;;;;;;28.20;70.20;;;;;;5066948;28;19940;-48